Time;durP1;ratioP1;P1;durP2;ratioP2;P2;SDS_P1;SDS_P2;PMS_P1;PMS_P2;Temp;Humidity;BMP_temperature;BMP_pressure;BME280_temperature;BME280_humidity;BME280_pressure;Samples;Min_cycle;Max_cycle;Signal;HPM_P1;HPM_P2
2022/01/02 00:00:15;;;;;;;22.98;17.33;;;230.60;2252.80;;;;;;5004149;28;20057;-81
2022/01/02 00:02:42;;;;;;;26.38;16.98;;;230.60;2252.80;;;;;;5001362;28;20033;-81
2022/01/02 00:05:12;;;;;;;27.40;17.30;;;230.60;2252.80;;;;;;5017703;28;20434;-77
2022/01/02 00:07:51;;;;;;;24.17;15.52;;;230.50;2252.80;;;;;;5003878;28;20049;-76
2022/01/02 00:10:20;;;;;;;25.52;16.67;;;230.50;2252.80;;;;;;5002109;28;20112;-81
2022/01/02 00:12:52;;;;;;;26.70;17.50;;;230.60;2252.80;;;;;;5001325;28;20512;-81
2022/01/02 00:15:20;;;;;;;28.83;17.75;;;230.50;2252.80;;;;;;5009487;28;20489;-80
2022/01/02 00:17:51;;;;;;;27.05;17.27;;;230.50;2252.80;;;;;;5000577;28;20077;-79
2022/01/02 00:20:31;;;;;;;29.65;17.35;;;230.50;2252.80;;;;;;5017991;28;20033;-80
2022/01/02 00:23:00;;;;;;;23.75;16.30;;;230.40;2252.80;;;;;;5000425;28;20026;-80
2022/01/02 00:25:31;;;;;;;25.38;18.52;;;230.40;2252.80;;;;;;5019648;28;20476;-80
2022/01/02 00:27:59;;;;;;;29.30;17.33;;;230.40;2252.80;;;;;;5002699;28;20045;-81
2022/01/02 00:30:25;;;;;;;27.15;16.80;;;205.70;2252.80;;;;;;5023607;28;20157;-80
2022/01/02 00:32:51;;;;;;;26.67;15.98;;;205.70;2252.80;;;;;;4998517;28;20057;-77
2022/01/02 00:35:18;;;;;;;25.58;16.80;;;205.70;2252.80;;;;;;5038260;28;20485;-76
2022/01/02 00:37:44;;;;;;;26.50;16.17;;;205.70;2252.80;;;;;;5041897;28;20037;-77
2022/01/02 00:40:10;;;;;;;23.45;16.05;;;205.60;2252.80;;;;;;5040919;28;20519;-77
2022/01/02 00:42:39;;;;;;;26.38;16.05;;;205.60;2252.80;;;;;;5041563;28;20075;-76
2022/01/02 00:45:18;;;;;;;24.38;16.25;;;205.60;2252.80;;;;;;5038555;28;20365;-77
2022/01/02 00:47:47;;;;;;;24.55;16.52;;;205.60;2252.80;;;;;;5035863;28;20103;-77
2022/01/02 00:50:37;;;;;;;26.58;16.40;;;205.50;2252.80;;;;;;5037470;28;20417;-77
2022/01/02 00:53:05;;;;;;;24.63;15.93;;;205.40;2252.80;;;;;;5043679;28;20029;-77
2022/01/02 00:55:34;;;;;;;29.67;18.25;;;205.40;2252.80;;;;;;5034063;28;20033;-77
2022/01/02 00:58:01;;;;;;;20.17;16.17;;;205.30;2252.80;;;;;;5047483;28;20025;-77
2022/01/02 01:00:27;;;;;;;27.98;18.67;;;205.30;2252.80;;;;;;5048299;28;20033;-76
2022/01/02 01:02:56;;;;;;;22.40;16.13;;;205.20;2252.80;;;;;;5032216;28;20484;-76
2022/01/02 01:05:28;;;;;;;27.33;16.25;;;205.20;2252.80;;;;;;5033116;28;20033;-77
2022/01/02 01:08:02;;;;;;;26.58;16.90;;;205.20;2252.80;;;;;;5035624;28;20044;-77
2022/01/02 01:10:32;;;;;;;21.70;15.93;;;205.20;2252.80;;;;;;5040800;28;20492;-76
2022/01/02 01:13:00;;;;;;;27.70;18.55;;;205.20;2252.80;;;;;;5040554;28;20026;-77
2022/01/02 01:15:28;;;;;;;25.63;16.45;;;205.10;2252.80;;;;;;5044415;28;20477;-76
2022/01/02 01:17:56;;;;;;;24.63;15.88;;;205.10;2252.80;;;;;;5044691;28;20417;-76
2022/01/02 01:20:24;;;;;;;25.50;16.00;;;205.10;2252.80;;;;;;5041726;28;20047;-77
2022/01/02 01:22:50;;;;;;;24.17;16.83;;;205.10;2252.80;;;;;;5040446;28;20108;-76
2022/01/02 01:25:17;;;;;;;29.60;15.32;;;205.10;2252.80;;;;;;5043780;28;20067;-76
2022/01/02 01:27:49;;;;;;;23.35;15.60;;;205.20;2252.80;;;;;;5041543;28;20025;-76
2022/01/02 01:30:17;;;;;;;27.95;18.20;;;205.20;2252.80;;;;;;5039255;28;20064;-76
2022/01/02 01:32:44;;;;;;;27.55;16.25;;;205.10;2252.80;;;;;;5043955;28;20063;-76
2022/01/02 01:35:10;;;;;;;22.80;17.67;;;205.20;2252.80;;;;;;5042189;28;20084;-76
2022/01/02 01:37:37;;;;;;;28.08;18.27;;;205.20;2252.80;;;;;;5043226;28;20400;-75
2022/01/02 01:40:05;;;;;;;24.70;15.52;;;205.10;2252.80;;;;;;5041691;28;20068;-75
2022/01/02 01:42:40;;;;;;;26.52;17.00;;;205.10;2252.80;;;;;;5039804;28;20028;-75
2022/01/02 01:47:48;;;;;;;26.48;16.30;;;205.10;2252.80;;;;;;5038765;28;20117;-76
2022/01/02 01:50:14;;;;;;;27.73;16.65;;;205.10;2252.80;;;;;;5041609;28;20029;-76
2022/01/02 01:52:41;;;;;;;23.95;15.75;;;205.00;2252.80;;;;;;5043339;28;20025;-76
2022/01/02 01:55:08;;;;;;;24.27;14.55;;;205.00;2252.80;;;;;;5027910;28;20488;-76
2022/01/02 01:57:34;;;;;;;25.15;15.65;;;205.00;2252.80;;;;;;5040537;28;20052;-76
2022/01/02 02:00:08;;;;;;;39.42;23.65;;;205.00;2252.80;;;;;;5034395;28;20436;-75
2022/01/02 02:02:33;;;;;;;27.65;16.80;;;205.00;2252.80;;;;;;5035653;28;20105;-77
2022/01/02 02:04:59;;;;;;;32.33;20.70;;;205.00;2252.80;;;;;;5041145;28;20099;-76
2022/01/02 02:07:29;;;;;;;26.65;16.10;;;205.00;2252.80;;;;;;5034274;28;20504;-76
2022/01/02 02:12:27;;;;;;;26.58;16.42;;;205.10;2252.80;;;;;;5034981;28;20487;-76
2022/01/02 02:14:52;;;;;;;23.65;15.35;;;205.10;2252.80;;;;;;5040403;28;20029;-76
2022/01/02 02:17:18;;;;;;;26.70;15.93;;;205.10;2252.80;;;;;;5037645;28;20028;-76
2022/01/02 02:19:45;;;;;;;22.85;15.00;;;205.10;2252.80;;;;;;5038696;28;20104;-75
2022/01/02 02:22:12;;;;;;;22.20;14.90;;;205.10;2252.80;;;;;;5043686;28;20764;-75
2022/01/02 02:24:40;;;;;;;23.42;14.18;;;205.00;2252.80;;;;;;5042544;28;20148;-76
2022/01/02 02:27:06;;;;;;;25.90;14.60;;;205.00;2252.80;;;;;;5035499;28;20038;-76
2022/01/02 02:29:31;;;;;;;20.73;14.10;;;205.00;2252.80;;;;;;5042175;28;20025;-76
2022/01/02 02:32:00;;;;;;;20.63;14.48;;;205.00;2252.80;;;;;;5044754;28;20033;-76
2022/01/02 02:34:26;;;;;;;24.02;16.98;;;205.00;2252.80;;;;;;5048311;28;20087;-76
2022/01/02 02:36:51;;;;;;;26.55;17.85;;;205.00;2252.80;;;;;;5042407;28;20436;-75
2022/01/02 02:39:17;;;;;;;27.48;17.23;;;204.90;2252.80;;;;;;5041369;28;20030;-76
2022/01/02 02:41:44;;;;;;;22.67;15.30;;;204.90;2252.80;;;;;;5037207;28;20041;-76
2022/01/02 02:44:22;;;;;;;23.75;14.98;;;204.90;2252.80;;;;;;5042785;28;20029;-77
2022/01/02 02:49:32;;;;;;;44.58;27.50;;;204.80;2252.80;;;;;;5040817;28;20064;-76
2022/01/02 02:52:10;;;;;;;41.20;23.95;;;204.80;2252.80;;;;;;5044045;28;20068;-76
2022/01/02 02:54:36;;;;;;;41.38;27.35;;;180.10;2252.80;;;;;;5042784;28;20029;-76
2022/01/02 02:57:11;;;;;;;51.88;35.28;;;180.10;2252.80;;;;;;5054621;28;20029;-76
2022/01/02 02:59:36;;;;;;;43.42;28.50;;;180.00;2252.80;;;;;;5034737;28;20029;-76
2022/01/02 03:02:03;;;;;;;42.83;27.08;;;180.00;2252.80;;;;;;5033201;28;20036;-76
2022/01/02 03:04:29;;;;;;;42.30;24.83;;;179.70;2252.80;;;;;;5040809;28;20056;-76
2022/01/02 03:06:55;;;;;;;65.75;37.85;;;179.90;2252.80;;;;;;5029052;28;20073;-75
2022/01/02 03:09:46;;;;;;;77.90;42.03;;;179.80;2252.80;;;;;;5041658;28;20041;-77
2022/01/02 03:12:11;;;;;;;47.83;30.25;;;179.80;2252.80;;;;;;5039699;28;20013;-76
2022/01/02 03:14:37;;;;;;;45.28;28.10;;;179.80;2252.80;;;;;;5040590;28;20037;-76
2022/01/02 03:17:03;;;;;;;36.35;23.45;;;179.70;2252.80;;;;;;5037585;28;20039;-76
2022/01/02 03:19:31;;;;;;;34.92;22.10;;;179.70;2252.80;;;;;;5039857;28;20391;-75
2022/01/02 03:21:57;;;;;;;29.80;20.42;;;179.70;2252.80;;;;;;5038112;28;20444;-76
2022/01/02 03:24:23;;;;;;;39.85;25.77;;;179.70;2252.80;;;;;;5033979;28;20040;-77
2022/01/02 03:26:48;;;;;;;54.88;31.00;;;179.50;2252.80;;;;;;5033723;28;20377;-76
2022/01/02 03:29:14;;;;;;;47.65;28.77;;;179.40;2252.80;;;;;;5040931;28;20056;-76
2022/01/02 03:31:40;;;;;;;53.42;33.42;;;179.30;2252.80;;;;;;5039621;28;20024;-76
2022/01/02 03:34:05;;;;;;;44.38;26.85;;;179.30;2252.80;;;;;;5042912;28;20372;-76
2022/01/02 03:36:31;;;;;;;38.35;24.88;;;179.20;2252.80;;;;;;5035573;28;20378;-75
2022/01/02 03:38:57;;;;;;;63.15;37.17;;;179.20;2252.80;;;;;;5030439;28;20045;-75
2022/01/02 03:41:23;;;;;;;45.50;27.98;;;179.20;1894.40;;;;;;5032304;28;20084;-76
2022/01/02 03:43:48;;;;;;;39.63;23.52;;;179.20;1894.40;;;;;;5030647;28;20133;-75
2022/01/02 03:46:14;;;;;;;33.70;21.50;;;179.30;1868.80;;;;;;5032483;28;20088;-75
2022/01/02 03:48:40;;;;;;;33.88;21.75;;;179.30;1868.80;;;;;;5031538;28;20045;-75
2022/01/02 03:51:06;;;;;;;27.23;19.90;;;179.30;1945.60;;;;;;5030668;28;20098;-75
2022/01/02 03:53:32;;;;;;;27.60;18.45;;;179.30;1868.80;;;;;;5030318;28;20091;-74
2022/01/02 03:55:57;;;;;;;27.83;19.38;;;179.20;1996.80;;;;;;5030214;28;20060;-75
2022/01/02 03:58:23;;;;;;;25.55;18.23;;;179.20;1971.20;;;;;;5030659;28;20036;-75
2022/01/02 04:00:49;;;;;;;48.17;27.75;;;179.20;1945.60;;;;;;5030391;28;20029;-75
2022/01/02 04:03:15;;;;;;;46.63;26.08;;;179.70;2073.60;;;;;;5031928;28;20029;-75
2022/01/02 04:05:43;;;;;;;34.97;21.95;;;179.30;2124.80;;;;;;5030381;28;20045;-75
2022/01/02 04:08:09;;;;;;;34.78;21.25;;;179.30;1996.80;;;;;;5030649;28;20041;-75
2022/01/02 04:10:35;;;;;;;31.90;19.38;;;179.30;1920.00;;;;;;5030300;28;20040;-75
2022/01/02 04:13:01;;;;;;;26.67;17.98;;;179.30;1996.80;;;;;;5020915;28;20022;-75
2022/01/02 04:15:27;;;;;;;25.70;17.40;;;179.30;1945.60;;;;;;5027187;28;20473;-75
2022/01/02 04:17:53;;;;;;;29.73;18.95;;;179.30;2124.80;;;;;;5011002;28;20033;-75
2022/01/02 04:20:19;;;;;;;27.85;17.88;;;179.30;2073.60;;;;;;5011986;28;20018;-75
2022/01/02 04:22:45;;;;;;;25.10;17.15;;;179.30;1894.40;;;;;;5018489;28;20393;-75
2022/01/02 04:25:12;;;;;;;24.13;16.90;;;179.30;2022.40;;;;;;5019643;28;20022;-75
2022/01/02 04:27:38;;;;;;;26.73;17.35;;;179.40;2201.60;;;;;;5016646;28;20097;-75
2022/01/02 04:30:10;;;;;;;24.13;16.63;;;179.40;2073.60;;;;;;5027399;28;20256;-75
2022/01/02 04:32:36;;;;;;;25.60;17.27;;;179.60;2073.60;;;;;;5027340;28;20137;-76
2022/01/02 04:35:02;;;;;;;24.20;15.82;;;179.60;1894.40;;;;;;5012040;28;20091;-76
2022/01/02 04:37:28;;;;;;;20.60;16.50;;;179.70;2252.80;;;;;;5027356;28;20041;-76
2022/01/02 04:39:53;;;;;;;24.42;15.65;;;179.70;2252.80;;;;;;5027709;28;20026;-76
2022/01/02 04:42:19;;;;;;;26.92;16.73;;;179.80;2252.80;;;;;;5011946;28;20026;-76
2022/01/02 04:44:45;;;;;;;23.90;16.00;;;179.80;2252.80;;;;;;5030058;28;20038;-76
2022/01/02 04:47:11;;;;;;;25.20;16.88;;;179.80;2252.80;;;;;;5030710;28;20040;-76
2022/01/02 04:49:36;;;;;;;24.90;16.08;;;179.80;2252.80;;;;;;5036280;28;20029;-76
2022/01/02 04:52:03;;;;;;;24.65;16.15;;;179.80;2252.80;;;;;;5035582;28;20036;-76
2022/01/02 04:54:29;;;;;;;26.08;15.85;;;179.80;2252.80;;;;;;5034050;28;20040;-76
2022/01/02 04:56:54;;;;;;;24.25;14.57;;;179.80;2252.80;;;;;;5034410;28;20025;-76
2022/01/02 04:59:20;;;;;;;24.67;17.25;;;179.80;2252.80;;;;;;5033415;28;20044;-76
2022/01/02 05:01:46;;;;;;;28.40;16.42;;;179.80;2252.80;;;;;;5034189;28;20036;-76
2022/01/02 05:04:11;;;;;;;24.98;18.23;;;179.90;2252.80;;;;;;5035075;28;20053;-76
2022/01/02 05:06:38;;;;;;;26.70;17.17;;;179.80;2252.80;;;;;;5035119;28;20049;-76
2022/01/02 05:09:04;;;;;;;30.13;18.77;;;179.80;2252.80;;;;;;5034855;28;20029;-76
2022/01/02 05:11:30;;;;;;;35.88;19.70;;;179.90;2252.80;;;;;;5035226;28;20084;-76
2022/01/02 05:13:56;;;;;;;27.80;17.83;;;179.80;2252.80;;;;;;5033084;28;20028;-76
2022/01/02 05:16:22;;;;;;;27.02;18.00;;;179.80;2252.80;;;;;;5035109;28;20511;-76
2022/01/02 05:18:47;;;;;;;27.20;17.20;;;179.70;2252.80;;;;;;5033443;28;20029;-76
2022/01/02 05:21:13;;;;;;;29.75;18.52;;;179.70;2252.80;;;;;;5033488;28;20040;-77
2022/01/02 05:23:39;;;;;;;34.53;23.90;;;179.70;2252.80;;;;;;5033787;28;20032;-77
2022/01/02 05:26:05;;;;;;;37.25;26.13;;;179.60;2252.80;;;;;;5033354;28;20392;-76
2022/01/02 05:28:31;;;;;;;39.47;25.27;;;179.70;2252.80;;;;;;5033700;28;20036;-76
2022/01/02 05:30:57;;;;;;;29.42;19.88;;;179.70;2252.80;;;;;;5034450;28;20030;-76
2022/01/02 05:33:23;;;;;;;28.52;18.55;;;179.70;2252.80;;;;;;5033517;28;20026;-76
2022/01/02 05:35:48;;;;;;;25.75;18.08;;;179.70;2252.80;;;;;;5032941;28;20029;-76
2022/01/02 05:38:15;;;;;;;32.80;19.23;;;179.60;2252.80;;;;;;5033448;28;20033;-77
2022/01/02 05:40:41;;;;;;;28.77;18.13;;;179.60;2252.80;;;;;;5032959;28;20025;-77
2022/01/02 05:43:07;;;;;;;29.00;17.80;;;179.60;2252.80;;;;;;5034469;28;20091;-76
2022/01/02 05:45:33;;;;;;;32.08;18.85;;;179.50;2252.80;;;;;;5033105;28;20025;-76
2022/01/02 05:48:02;;;;;;;30.10;18.88;;;179.50;2252.80;;;;;;5033001;28;20112;-76
2022/01/02 05:50:28;;;;;;;25.50;18.95;;;179.50;2252.80;;;;;;5034056;28;20108;-76
2022/01/02 05:52:53;;;;;;;24.17;18.77;;;179.50;2252.80;;;;;;5032883;28;20124;-76
2022/01/02 05:55:19;;;;;;;34.33;22.45;;;179.40;2252.80;;;;;;5034058;28;20025;-76
2022/01/02 05:57:45;;;;;;;38.58;23.75;;;179.40;2252.80;;;;;;5034190;28;20018;-76
2022/01/02 06:00:11;;;;;;;38.47;26.33;;;179.30;1868.80;;;;;;5033342;28;20508;-76
2022/01/02 06:02:37;;;;;;;46.13;29.27;;;179.30;2252.80;;;;;;5032548;28;20029;-76
2022/01/02 06:05:04;;;;;;;44.10;30.40;;;179.30;1894.40;;;;;;5034076;28;20088;-76
2022/01/02 06:07:34;;;;;;;43.33;29.35;;;179.30;1945.60;;;;;;5032394;28;20089;-76
2022/01/02 06:10:01;;;;;;;39.85;26.67;;;179.30;2022.40;;;;;;5032004;28;20044;-76
2022/01/02 06:12:27;;;;;;;34.20;23.73;;;179.30;2252.80;;;;;;5033837;28;20029;-76
2022/01/02 06:14:52;;;;;;;32.78;22.95;;;179.20;1894.40;;;;;;5033687;28;20027;-76
2022/01/02 06:17:18;;;;;;;29.88;20.15;;;179.20;2252.80;;;;;;5034046;28;20385;-76
2022/01/02 06:19:44;;;;;;;28.92;19.45;;;179.20;2252.80;;;;;;5033672;28;20037;-76
2022/01/02 06:22:10;;;;;;;27.27;19.10;;;154.50;2252.80;;;;;;5034098;28;20029;-76
2022/01/02 06:24:35;;;;;;;29.48;20.83;;;154.40;1868.80;;;;;;5033609;28;20044;-76
2022/01/02 06:27:01;;;;;;;28.08;19.48;;;154.40;1996.80;;;;;;5032468;28;20506;-76
2022/01/02 06:29:27;;;;;;;33.22;22.50;;;154.40;2048.00;;;;;;5024283;28;20065;-76
2022/01/02 06:31:53;;;;;;;28.38;20.13;;;154.30;2252.80;;;;;;5013781;28;20026;-76
2022/01/02 06:34:19;;;;;;;30.15;19.08;;;154.40;2022.40;;;;;;5013476;28;20472;-76
2022/01/02 06:36:45;;;;;;;32.72;20.25;;;154.40;2252.80;;;;;;5020138;28;20105;-75
2022/01/02 06:39:10;;;;;;;34.03;21.90;;;154.40;2252.80;;;;;;5039296;28;20029;-76
2022/01/02 06:41:36;;;;;;;33.55;22.67;;;154.40;2252.80;;;;;;5041932;28;20079;-76
2022/01/02 06:44:02;;;;;;;32.90;20.60;;;154.40;2252.80;;;;;;5042783;28;20030;-76
2022/01/02 06:46:27;;;;;;;34.17;19.85;;;154.50;2252.80;;;;;;5040295;28;20022;-75
2022/01/02 06:48:54;;;;;;;31.88;20.67;;;154.50;2252.80;;;;;;5040421;28;20034;-75
2022/01/02 06:51:20;;;;;;;29.70;19.77;;;154.50;2252.80;;;;;;5038356;28;20059;-75
2022/01/02 06:53:46;;;;;;;34.83;23.33;;;154.50;2252.80;;;;;;5039255;28;20481;-75
2022/01/02 06:56:11;;;;;;;44.10;26.35;;;179.20;2252.80;;;;;;5039733;28;20476;-76
2022/01/02 06:58:38;;;;;;;44.92;30.58;;;179.20;2252.80;;;;;;5038956;28;20029;-75
2022/01/02 07:01:05;;;;;;;45.15;30.70;;;179.20;2252.80;;;;;;5041499;28;20013;-76
2022/01/02 07:03:32;;;;;;;43.58;30.52;;;179.30;2252.80;;;;;;5039925;28;20035;-76
2022/01/02 07:06:00;;;;;;;49.35;31.83;;;179.30;2252.80;;;;;;5034541;28;20050;-76
2022/01/02 07:08:27;;;;;;;43.00;28.88;;;179.50;2252.80;;;;;;5036495;28;20132;-75
2022/01/02 07:10:55;;;;;;;40.33;29.10;;;179.50;2252.80;;;;;;5036269;28;20128;-75
2022/01/02 07:13:21;;;;;;;42.17;27.27;;;179.60;2252.80;;;;;;5040243;28;20013;-75
2022/01/02 07:15:47;;;;;;;51.30;31.27;;;179.60;2252.80;;;;;;5034000;28;20013;-76
2022/01/02 07:18:13;;;;;;;41.10;28.20;;;179.60;2252.80;;;;;;5031691;28;20045;-76
2022/01/02 07:20:39;;;;;;;42.83;28.73;;;179.70;2252.80;;;;;;5031542;28;20025;-76
2022/01/02 07:23:04;;;;;;;45.15;28.55;;;179.80;2252.80;;;;;;5032370;28;20032;-76
2022/01/02 07:25:30;;;;;;;89.90;48.15;;;179.90;2252.80;;;;;;5031427;28;20381;-76
2022/01/02 07:27:56;;;;;;;120.43;62.03;;;180.00;2252.80;;;;;;5032381;28;20033;-76
2022/01/02 07:30:21;;;;;;;72.38;40.17;;;180.00;2252.80;;;;;;5032194;28;20121;-76
2022/01/02 07:32:47;;;;;;;66.28;42.45;;;180.10;2252.80;;;;;;5032673;28;20021;-76
2022/01/02 07:35:13;;;;;;;73.07;44.42;;;204.80;2252.80;;;;;;5032288;28;20068;-75
2022/01/02 07:37:39;;;;;;;77.03;48.97;;;180.10;2252.80;;;;;;5031180;28;20473;-76
2022/01/02 07:40:06;;;;;;;76.22;49.85;;;204.80;2252.80;;;;;;5030915;28;20028;-75
2022/01/02 07:42:32;;;;;;;61.38;42.33;;;204.90;2252.80;;;;;;5031007;28;20026;-76
2022/01/02 07:44:58;;;;;;;67.35;41.85;;;204.90;2252.80;;;;;;5031983;28;20366;-75
2022/01/02 07:47:24;;;;;;;66.47;44.10;;;204.80;2252.80;;;;;;5031089;28;20451;-75
2022/01/02 07:49:50;;;;;;;119.30;61.53;;;204.90;2252.80;;;;;;5032076;28;20025;-75
2022/01/02 07:52:16;;;;;;;81.32;47.90;;;204.90;2252.80;;;;;;5030918;28;20377;-76
2022/01/02 07:54:42;;;;;;;76.03;45.75;;;204.90;2252.80;;;;;;5049090;28;20028;-75
2022/01/02 07:57:08;;;;;;;72.90;43.85;;;204.90;2252.80;;;;;;5051764;28;20029;-76
2022/01/02 07:59:34;;;;;;;78.00;51.10;;;205.00;2252.80;;;;;;5052408;28;20029;-76
2022/01/02 08:01:59;;;;;;;63.72;39.35;;;205.10;2252.80;;;;;;5043041;28;20507;-76
2022/01/02 08:04:25;;;;;;;43.40;30.85;;;205.20;2252.80;;;;;;5036493;28;20033;-76
2022/01/02 08:06:51;;;;;;;42.63;27.52;;;205.20;2252.80;;;;;;5039193;28;20518;-76
2022/01/02 08:09:16;;;;;;;45.47;30.00;;;205.30;2252.80;;;;;;5043174;28;20468;-76
2022/01/02 08:11:42;;;;;;;54.63;34.60;;;205.30;2252.80;;;;;;5038259;28;20029;-74
2022/01/02 08:14:08;;;;;;;50.17;33.95;;;205.40;2252.80;;;;;;5042015;28;20393;-74
2022/01/02 08:16:34;;;;;;;51.13;33.05;;;205.50;2252.80;;;;;;5040654;28;20125;-74
2022/01/02 08:19:00;;;;;;;53.70;35.60;;;205.50;2252.80;;;;;;5044665;28;20021;-74
2022/01/02 08:21:26;;;;;;;52.72;36.08;;;205.50;2252.80;;;;;;5046289;28;20025;-74
2022/01/02 08:23:52;;;;;;;59.60;38.15;;;205.70;2252.80;;;;;;5035384;28;20025;-74
2022/01/02 08:26:17;;;;;;;57.95;37.33;;;230.40;2252.80;;;;;;5043854;28;20025;-74
2022/01/02 08:28:43;;;;;;;53.67;36.63;;;230.50;2252.80;;;;;;5042873;28;20373;-74
2022/01/02 08:31:09;;;;;;;48.13;33.05;;;230.70;2252.80;;;;;;5042591;28;20029;-74
2022/01/02 08:33:35;;;;;;;28.85;19.15;;;230.80;2252.80;;;;;;5044533;28;20083;-74
2022/01/02 08:36:00;;;;;;;33.60;21.48;;;230.90;2252.80;;;;;;5046352;28;20029;-74
2022/01/02 08:38:28;;;;;;;31.80;19.10;;;231.00;2252.80;;;;;;5044651;28;20056;-74
2022/01/02 08:40:54;;;;;;;35.05;19.95;;;231.00;2252.80;;;;;;5045799;28;20029;-74
2022/01/02 08:43:20;;;;;;;23.90;16.00;;;231.10;2252.80;;;;;;5044629;28;20061;-74
2022/01/02 08:45:45;;;;;;;20.23;14.55;;;231.20;2252.80;;;;;;5044814;28;20396;-74
2022/01/02 08:48:12;;;;;;;27.67;17.20;;;231.30;2252.80;;;;;;5043766;28;20029;-74
2022/01/02 08:50:37;;;;;;;23.98;16.00;;;256.00;2252.80;;;;;;5027830;28;20481;-74
2022/01/02 08:53:03;;;;;;;28.48;19.13;;;256.10;2252.80;;;;;;5023115;28;20030;-74
2022/01/02 08:55:29;;;;;;;30.60;19.67;;;256.20;2252.80;;;;;;5024949;28;20025;-74
2022/01/02 08:57:55;;;;;;;26.52;18.92;;;256.30;2252.80;;;;;;5020095;28;20658;-76
2022/01/02 09:00:22;;;;;;;23.63;17.38;;;256.50;2252.80;;;;;;5017662;28;20037;-76
2022/01/02 09:02:48;;;;;;;25.30;17.73;;;256.60;2252.80;;;;;;5015386;28;20026;-76
2022/01/02 09:05:14;;;;;;;24.85;16.95;;;256.80;2252.80;;;;;;5015089;28;20040;-76
2022/01/02 09:07:40;;;;;;;26.60;17.67;;;256.90;2252.80;;;;;;5014300;28;20030;-76
2022/01/02 09:10:06;;;;;;;34.63;21.35;;;281.60;2278.40;;;;;;5043058;28;20032;-77
2022/01/02 09:12:31;;;;;;;89.63;47.83;;;281.70;2278.40;;;;;;5038903;28;20032;-77
2022/01/02 09:14:57;;;;;;;39.75;25.23;;;281.80;2278.40;;;;;;5038534;28;20116;-76
2022/01/02 09:17:23;;;;;;;33.13;21.95;;;282.00;2278.40;;;;;;5033567;28;20118;-76
2022/01/02 09:19:51;;;;;;;24.63;15.75;;;282.20;2278.40;;;;;;5038863;28;20045;-76
2022/01/02 09:22:17;;;;;;;29.85;20.23;;;282.50;2278.40;;;;;;5044377;28;20035;-76
2022/01/02 09:24:43;;;;;;;25.88;17.70;;;307.30;2304.00;;;;;;5047135;28;20052;-76
2022/01/02 09:27:09;;;;;;;22.50;15.05;;;307.60;2304.00;;;;;;5036045;28;20452;-77
2022/01/02 09:29:35;;;;;;;15.02;11.05;;;307.80;2304.00;;;;;;5032815;28;20086;-77
2022/01/02 09:32:02;;;;;;;18.50;11.88;;;308.00;2304.00;;;;;;5033118;28;20033;-77
2022/01/02 09:34:28;;;;;;;16.55;12.35;;;333.00;2329.60;;;;;;5033205;28;20113;-77
2022/01/02 09:36:54;;;;;;;14.38;9.90;;;333.10;2329.60;;;;;;5038226;28;20061;-77
2022/01/02 09:39:20;;;;;;;23.80;13.45;;;333.50;2329.60;;;;;;5031694;28;20056;-77
2022/01/02 09:41:46;;;;;;;18.35;11.23;;;333.50;2329.60;;;;;;5033110;28;20408;-77
2022/01/02 09:44:11;;;;;;;17.17;13.95;;;333.70;2329.60;;;;;;5032827;28;20021;-77
2022/01/02 09:46:39;;;;;;;22.30;13.30;;;358.70;2329.60;;;;;;5041142;28;20056;-77
2022/01/02 09:49:05;;;;;;;35.58;22.73;;;359.00;2329.60;;;;;;5041642;28;20032;-77
2022/01/02 09:51:31;;;;;;;29.80;18.00;;;359.00;2329.60;;;;;;5043285;28;20544;-78
2022/01/02 09:53:57;;;;;;;28.17;18.42;;;359.30;2329.60;;;;;;5039806;28;20029;-78
2022/01/02 09:56:23;;;;;;;29.40;17.70;;;359.10;2329.60;;;;;;5039308;28;20122;-78
2022/01/02 09:58:50;;;;;;;45.72;30.23;;;384.00;2329.60;;;;;;5036892;28;20033;-77
2022/01/02 10:01:21;;;;;;;27.95;19.95;;;384.20;2329.60;;;;;;5041341;28;20033;-77
2022/01/02 10:03:54;;;;;;;26.63;19.67;;;384.30;2329.60;;;;;;5036747;28;20051;-78
2022/01/02 10:06:21;;;;;;;21.73;15.20;;;384.20;2329.60;;;;;;5040940;28;20515;-77
2022/01/02 10:08:47;;;;;;;19.55;14.45;;;384.70;2329.60;;;;;;5039997;28;20050;-78
2022/01/02 10:11:19;;;;;;;16.80;11.77;;;409.60;2355.20;;;;;;5041612;28;20057;-77
2022/01/02 10:13:46;;;;;;;14.52;10.70;;;409.90;2355.20;;;;;;5055524;28;20567;-78
2022/01/02 10:16:36;;;;;;;24.33;17.52;;;409.70;2355.20;;;;;;5037859;28;20026;-78
2022/01/02 10:19:36;;;;;;;34.67;25.38;;;409.70;2355.20;;;;;;5040237;28;20027;-78
2022/01/02 10:22:03;;;;;;;15.20;11.30;;;384.80;2329.60;;;;;;5039545;28;20025;-78
2022/01/02 10:24:36;;;;;;;24.33;19.75;;;409.60;2355.20;;;;;;5038186;28;20121;-78
2022/01/02 10:27:21;;;;;;;21.83;15.90;;;409.90;2355.20;;;;;;5025737;28;20029;-78
2022/01/02 10:29:50;;;;;;;28.65;22.63;;;410.40;2355.20;;;;;;5041915;28;20028;-78
2022/01/02 10:32:47;;;;;;;18.10;14.35;;;410.10;2355.20;;;;;;5040741;28;20558;-78
2022/01/02 10:35:18;;;;;;;17.10;13.13;;;410.20;2355.20;;;;;;5028089;28;20038;-78
2022/01/02 10:37:53;;;;;;;19.30;11.20;;;435.20;2355.20;;;;;;5030306;28;20038;-77
2022/01/02 10:40:32;;;;;;;16.85;11.10;;;435.40;2355.20;;;;;;5030119;28;20124;-78
2022/01/02 10:43:02;;;;;;;17.02;11.30;;;435.70;2355.20;;;;;;5029013;28;20013;-78
2022/01/02 10:45:35;;;;;;;21.85;17.92;;;435.80;2355.20;;;;;;5027822;28;20026;-77
2022/01/02 10:48:02;;;;;;;15.75;12.38;;;435.70;2355.20;;;;;;5030025;28;20025;-78
2022/01/02 10:50:28;;;;;;;22.05;12.80;;;461.20;2380.80;;;;;;5030298;28;20026;-78
2022/01/02 10:52:53;;;;;;;17.00;11.40;;;461.20;2380.80;;;;;;5027857;28;20415;-79
2022/01/02 10:55:21;;;;;;;15.95;10.70;;;461.70;2380.80;;;;;;5024786;28;20034;-79
2022/01/02 10:57:49;;;;;;;15.68;9.95;;;461.70;2380.80;;;;;;5030957;28;20418;-79
2022/01/02 11:00:16;;;;;;;15.90;8.75;;;486.80;2380.80;;;;;;5013889;28;20116;-79
2022/01/02 11:02:44;;;;;;;14.52;8.68;;;487.00;2380.80;;;;;;5014420;28;20044;-79
2022/01/02 11:05:14;;;;;;;14.77;9.07;;;487.10;2380.80;;;;;;5019307;28;20485;-79
2022/01/02 11:07:49;;;;;;;14.40;9.30;;;487.30;2380.80;;;;;;5009935;28;20042;-79
2022/01/02 11:10:17;;;;;;;14.07;10.70;;;487.00;2380.80;;;;;;5019774;28;20029;-78
2022/01/02 11:12:44;;;;;;;12.80;10.00;;;486.90;2380.80;;;;;;5061281;28;20112;-79
2022/01/02 11:15:13;;;;;;;18.95;10.35;;;487.20;2380.80;;;;;;5036291;28;20036;-79
2022/01/02 11:17:39;;;;;;;15.35;9.63;;;487.30;2380.80;;;;;;5036559;28;20021;-79
2022/01/02 11:20:08;;;;;;;16.13;11.23;;;487.00;2380.80;;;;;;5043513;28;20423;-78
2022/01/02 11:23:03;;;;;;;18.17;12.43;;;512.00;2380.80;;;;;;5038197;28;20531;-78
2022/01/02 11:25:44;;;;;;;15.93;10.85;;;512.50;2380.80;;;;;;5041988;28;20052;-79
2022/01/02 11:28:41;;;;;;;16.55;11.75;;;512.50;2380.80;;;;;;5019143;28;20595;-79
2022/01/02 11:31:09;;;;;;;16.90;11.50;;;512.30;2380.80;;;;;;5021052;28;20115;-79
2022/01/02 11:33:42;;;;;;;14.55;10.50;;;512.50;2380.80;;;;;;5036062;28;20032;-78
2022/01/02 11:36:28;;;;;;;19.02;12.73;;;512.80;2380.80;;;;;;5026816;28;20025;-79
2022/01/02 11:39:06;;;;;;;18.10;8.87;;;537.70;2406.40;;;;;;5021413;28;20033;-78
2022/01/02 11:41:44;;;;;;;32.55;22.88;;;512.80;2380.80;;;;;;5035308;28;20408;-79
2022/01/02 11:44:11;;;;;;;33.20;23.85;;;512.90;2380.80;;;;;;5027569;28;20041;-79
2022/01/02 11:46:55;;;;;;;15.77;13.10;;;538.30;2406.40;;;;;;5036213;28;20096;-80
2022/01/02 11:49:45;;;;;;;42.70;35.95;;;563.60;2432.00;;;;;;5023703;28;20044;-78
2022/01/02 11:52:12;;;;;;;38.03;27.75;;;588.90;2329.60;;;;;;5019002;28;20028;-79
2022/01/02 11:54:46;;;;;;;64.10;58.50;;;588.90;2380.80;;;;;;5020169;28;20036;-79
2022/01/02 11:57:12;;;;;;;150.18;110.72;;;589.00;2201.60;;;;;;5036775;28;20113;-79
2022/01/02 11:59:43;;;;;;;401.73;347.00;;;563.90;2380.80;;;;;;5019413;28;20124;-78
2022/01/02 12:02:12;;;;;;;741.97;527.40;;;588.90;2380.80;;;;;;5020077;28;20029;-76
2022/01/02 12:07:37;;;;;;;39.13;32.72;;;563.90;2432.00;;;;;;5043812;28;20052;-78
2022/01/02 12:10:20;;;;;;;498.27;452.75;;;563.20;2432.00;;;;;;5031589;28;20365;-78
2022/01/02 12:13:10;;;;;;;125.75;113.43;;;563.30;2432.00;;;;;;5029631;28;20031;-77